createdAt,value
2018-09-06T00:01:42.353Z,28.87
2018-09-06T00:04:16.939Z,28.23
2018-09-06T00:06:51.582Z,26.90
2018-09-06T00:09:26.241Z,27.73
2018-09-06T00:12:01.292Z,27.97
2018-09-06T00:14:35.725Z,25.40
2018-09-06T00:17:10.269Z,22.67
2018-09-06T00:19:44.881Z,20.27
2018-09-06T00:22:19.422Z,19.20
2018-09-06T00:24:53.976Z,18.20
2018-09-06T00:27:28.510Z,16.07
2018-09-06T00:30:03.098Z,17.07
2018-09-06T00:32:37.606Z,15.83
2018-09-06T00:35:12.273Z,15.47
2018-09-06T00:37:47.010Z,15.03
2018-09-06T00:40:21.703Z,15.30
2018-09-06T00:42:56.197Z,15.03
2018-09-06T00:45:30.886Z,14.87
2018-09-06T00:48:05.488Z,17.37
2018-09-06T00:50:40.815Z,17.40
2018-09-06T00:53:15.397Z,16.13
2018-09-06T00:55:50.039Z,18.00
2018-09-06T00:58:24.946Z,17.97
2018-09-06T01:00:59.369Z,17.40
2018-09-06T01:03:34.029Z,18.87
2018-09-06T01:06:08.693Z,17.77
2018-09-06T01:08:43.572Z,17.47
2018-09-06T01:11:18.516Z,17.63
2018-09-06T01:13:53.537Z,18.20
2018-09-06T01:16:28.572Z,17.53
2018-09-06T01:19:03.280Z,17.90
2018-09-06T01:21:38.200Z,19.27
2018-09-06T01:24:13.472Z,17.50
2018-09-06T01:26:48.335Z,18.13
2018-09-06T01:29:23.301Z,18.50
2018-09-06T01:31:57.915Z,18.57
2018-09-06T01:34:32.693Z,18.43
2018-09-06T01:37:09.348Z,17.57
2018-09-06T01:39:44.187Z,17.20
2018-09-06T01:42:18.956Z,17.67
2018-09-06T01:44:53.862Z,17.60
2018-09-06T01:47:28.323Z,16.20
2018-09-06T01:50:02.926Z,16.83
2018-09-06T01:52:38.226Z,15.77
2018-09-06T01:55:13.176Z,15.97
2018-09-06T01:57:47.833Z,17.97
2018-09-06T02:00:22.249Z,15.97
2018-09-06T02:02:56.810Z,17.67
2018-09-06T02:05:35.541Z,16.27
2018-09-06T02:08:10.074Z,15.90
2018-09-06T02:10:45.068Z,16.30
2018-09-06T02:13:19.720Z,16.10
2018-09-06T02:15:54.558Z,16.53
2018-09-06T02:18:29.193Z,16.97
2018-09-06T02:21:03.956Z,18.33
2018-09-06T02:23:38.593Z,20.27
2018-09-06T02:26:13.541Z,20.57
2018-09-06T02:28:48.319Z,20.57
2018-09-06T02:31:22.899Z,21.37
2018-09-06T02:33:57.883Z,21.70
2018-09-06T02:36:32.403Z,22.70
2018-09-06T02:39:07.760Z,23.33
2018-09-06T02:41:42.385Z,24.80
2018-09-06T02:44:36.326Z,24.00
2018-09-06T02:47:11.003Z,26.27
2018-09-06T02:49:53.293Z,24.00
2018-09-06T02:52:27.889Z,24.57
2018-09-06T02:55:02.761Z,26.00
2018-09-06T02:57:37.607Z,27.87
2018-09-06T03:00:12.164Z,26.30
2018-09-06T03:02:46.878Z,26.23
2018-09-06T03:05:21.660Z,27.67
2018-09-06T03:07:57.624Z,28.00
2018-09-06T03:10:38.844Z,28.67
2018-09-06T03:13:13.390Z,28.50
2018-09-06T03:15:47.966Z,30.27
2018-09-06T03:18:22.978Z,28.97
2018-09-06T03:20:57.524Z,30.20
2018-09-06T03:23:32.403Z,30.83
2018-09-06T03:26:12.249Z,30.40
2018-09-06T03:28:49.626Z,29.57
2018-09-06T03:31:24.162Z,29.67
2018-09-06T03:34:11.742Z,29.17
2018-09-06T03:36:46.284Z,30.33
2018-09-06T03:39:20.847Z,29.27
2018-09-06T03:41:55.318Z,29.57
2018-09-06T03:44:30.247Z,30.73
2018-09-06T03:47:04.682Z,31.50
2018-09-06T03:49:39.427Z,32.63
2018-09-06T03:52:14.162Z,31.60
2018-09-06T03:54:48.873Z,34.47
2018-09-06T03:57:23.481Z,32.83
2018-09-06T03:59:58.353Z,32.23
2018-09-06T04:02:33.165Z,37.20
2018-09-06T04:05:21.968Z,38.80
2018-09-06T04:08:10.133Z,37.00
2018-09-06T04:10:44.937Z,39.00
2018-09-06T04:13:19.981Z,42.23
2018-09-06T04:15:55.702Z,43.10
2018-09-06T04:18:30.232Z,45.47
2018-09-06T04:21:10.849Z,46.80
2018-09-06T04:23:45.628Z,40.40
2018-09-06T04:26:20.510Z,42.10
2018-09-06T04:28:55.160Z,45.70
2018-09-06T04:31:29.863Z,48.83
2018-09-06T04:34:04.521Z,50.50
2018-09-06T04:36:39.480Z,53.30
2018-09-06T04:39:14.260Z,53.60
2018-09-06T04:41:48.889Z,51.97
2018-09-06T04:44:24.016Z,55.47
2018-09-06T04:46:58.766Z,55.77
2018-09-06T04:49:33.817Z,59.80
2018-09-06T04:52:08.339Z,54.17
2018-09-06T04:54:43.026Z,53.47
2018-09-06T04:57:17.694Z,55.13
2018-09-06T04:59:52.346Z,57.57
2018-09-06T05:02:26.952Z,58.70
2018-09-06T05:05:01.587Z,55.27
2018-09-06T05:07:36.368Z,53.53
2018-09-06T05:10:10.954Z,56.00
2018-09-06T05:12:45.589Z,51.20
2018-09-06T05:15:20.296Z,52.27
2018-09-06T05:17:54.992Z,51.93
2018-09-06T05:20:29.604Z,54.20
2018-09-06T05:23:04.929Z,52.17
2018-09-06T05:25:39.743Z,42.07
2018-09-06T05:28:14.273Z,36.23
2018-09-06T05:30:48.928Z,34.17
2018-09-06T05:33:23.702Z,34.83
2018-09-06T05:35:58.513Z,36.00
2018-09-06T05:38:33.181Z,37.93
2018-09-06T05:41:07.913Z,39.37
2018-09-06T05:43:42.449Z,37.17
2018-09-06T05:46:17.295Z,38.43
2018-09-06T05:48:51.906Z,36.37
2018-09-06T05:51:27.002Z,40.47
2018-09-06T05:54:01.588Z,38.77
2018-09-06T05:56:36.191Z,39.20
2018-09-06T05:59:10.831Z,37.73
2018-09-06T06:01:45.538Z,34.77
2018-09-06T06:04:20.240Z,35.30
2018-09-06T06:06:54.928Z,35.93
2018-09-06T06:09:29.491Z,36.17
2018-09-06T06:12:04.575Z,36.20
2018-09-06T06:14:39.388Z,31.47
2018-09-06T06:17:13.940Z,34.50
2018-09-06T06:19:48.675Z,33.43
2018-09-06T06:22:23.293Z,34.17
2018-09-06T06:24:58.088Z,33.53
2018-09-06T06:27:32.847Z,32.07
2018-09-06T06:30:07.353Z,35.40
2018-09-06T06:32:42.025Z,32.43
2018-09-06T06:35:16.783Z,34.30
2018-09-06T06:37:51.263Z,35.00
2018-09-06T06:40:25.937Z,36.63
2018-09-06T06:43:00.511Z,37.87
2018-09-06T06:45:35.165Z,33.80
2018-09-06T06:48:09.673Z,34.33
2018-09-06T06:50:44.156Z,34.93
2018-09-06T06:53:18.819Z,33.30
2018-09-06T06:55:53.327Z,34.93
2018-09-06T06:58:27.949Z,35.73
2018-09-06T07:01:02.776Z,36.93
2018-09-06T07:03:37.386Z,33.20
2018-09-06T07:06:11.981Z,32.57
2018-09-06T07:08:46.564Z,31.70
2018-09-06T07:11:21.258Z,29.20
2018-09-06T07:13:55.963Z,27.40
2018-09-06T07:16:30.584Z,28.53
2018-09-06T07:19:05.249Z,30.10
2018-09-06T07:21:39.861Z,32.33
2018-09-06T07:24:14.496Z,29.70
2018-09-06T07:26:49.132Z,33.70
2018-09-06T07:29:23.654Z,35.33
2018-09-06T07:31:58.551Z,35.37
2018-09-06T07:34:33.218Z,34.47
2018-09-06T07:37:07.760Z,34.70
2018-09-06T07:39:42.739Z,34.13
2018-09-06T07:45:16.883Z,33.27
2018-09-06T07:47:51.886Z,31.07
2018-09-06T07:50:26.523Z,32.10
2018-09-06T07:53:01.365Z,33.53
2018-09-06T07:55:36.088Z,33.00
2018-09-06T07:58:10.992Z,33.47
2018-09-06T08:00:45.461Z,33.57
2018-09-06T08:03:25.744Z,32.30
2018-09-06T08:06:00.744Z,29.80
2018-09-06T08:08:35.168Z,31.63
2018-09-06T08:11:19.977Z,30.97
2018-09-06T08:13:54.481Z,31.17
2018-09-06T08:16:29.503Z,33.67
2018-09-06T08:19:04.107Z,34.57
2018-09-06T08:21:38.812Z,33.20
2018-09-06T08:24:13.438Z,33.27
2018-09-06T08:26:48.114Z,33.43
2018-09-06T08:29:22.849Z,35.67
2018-09-06T08:31:57.424Z,34.27
2018-09-06T08:34:31.893Z,33.10
2018-09-06T08:37:07.195Z,26.37
2018-09-06T08:39:42.187Z,26.83
2018-09-06T08:42:17.117Z,29.40
2018-09-06T08:44:51.807Z,30.90
2018-09-06T08:47:27.073Z,29.73
2018-09-06T08:50:01.652Z,29.10
2018-09-06T08:52:36.128Z,31.17
2018-09-06T08:55:11.241Z,30.23
2018-09-06T08:57:46.109Z,31.53
2018-09-06T09:00:20.772Z,28.40
2018-09-06T09:02:55.429Z,28.83
2018-09-06T09:05:30.317Z,25.97
2018-09-06T09:08:05.645Z,24.20
2018-09-06T09:10:40.317Z,27.33
2018-09-06T09:13:14.898Z,29.33
2018-09-06T09:15:49.907Z,31.63
2018-09-06T09:18:24.377Z,30.57
2018-09-06T09:20:58.998Z,30.10
2018-09-06T09:23:33.473Z,29.47
2018-09-06T09:26:08.126Z,28.53
2018-09-06T09:28:42.652Z,28.93
2018-09-06T09:31:17.300Z,26.40
2018-09-06T09:33:59.960Z,27.80
2018-09-06T09:36:34.792Z,28.97
2018-09-06T09:39:10.357Z,29.03
2018-09-06T09:41:45.220Z,26.73
2018-09-06T09:44:33.014Z,25.07
2018-09-06T09:49:41.473Z,23.60
2018-09-06T09:52:16.001Z,23.63
2018-09-06T09:54:50.770Z,23.90
2018-09-06T09:57:25.422Z,22.17
2018-09-06T09:59:59.903Z,21.63
2018-09-06T10:02:39.823Z,14.77
2018-09-06T10:05:19.833Z,15.77
2018-09-06T10:07:55.788Z,16.97
2018-09-06T10:10:30.290Z,17.43
2018-09-06T10:13:04.841Z,19.40
2018-09-06T10:15:40.087Z,20.07
2018-09-06T10:18:14.802Z,18.17
2018-09-06T10:20:49.524Z,20.27
2018-09-06T10:23:24.422Z,20.07
2018-09-06T10:25:59.204Z,21.10
2018-09-06T10:28:33.773Z,20.37
2018-09-06T10:31:08.610Z,20.97
2018-09-06T10:33:43.388Z,20.90
2018-09-06T10:36:18.345Z,22.57
2018-09-06T10:38:53.043Z,18.43
2018-09-06T10:41:27.712Z,17.70
2018-09-06T10:44:02.564Z,17.13
2018-09-06T10:46:37.217Z,17.27
2018-09-06T10:49:11.810Z,18.23
2018-09-06T10:51:46.636Z,20.60
2018-09-06T10:54:21.237Z,21.83
2018-09-06T10:56:55.789Z,24.27
2018-09-06T10:59:30.809Z,25.60
2018-09-06T11:02:05.556Z,26.10
2018-09-06T11:04:40.300Z,28.27
2018-09-06T11:07:14.888Z,28.57
2018-09-06T11:09:49.591Z,29.07
2018-09-06T11:12:30.412Z,29.13
2018-09-06T11:15:16.731Z,29.93
2018-09-06T11:18:10.766Z,26.47
2018-09-06T11:20:45.893Z,26.13
2018-09-06T11:23:20.587Z,29.37
2018-09-06T11:25:55.105Z,27.67
2018-09-06T11:28:29.682Z,25.80
2018-09-06T11:31:04.448Z,24.40
2018-09-06T11:33:39.159Z,26.30
2018-09-06T11:36:13.849Z,24.40
2018-09-06T11:38:48.668Z,25.80
2018-09-06T11:41:23.125Z,25.73
2018-09-06T11:43:58.000Z,24.57
2018-09-06T11:46:32.606Z,25.30
2018-09-06T11:49:07.021Z,24.07
2018-09-06T11:51:41.594Z,26.17
2018-09-06T11:54:16.211Z,27.43
2018-09-06T11:56:50.998Z,27.17
2018-09-06T11:59:26.027Z,28.70
2018-09-06T12:02:00.500Z,29.67
2018-09-06T12:04:35.147Z,30.83
2018-09-06T12:07:10.129Z,32.87
2018-09-06T12:09:44.681Z,33.97
2018-09-06T12:12:19.443Z,35.47
2018-09-06T12:14:54.116Z,35.17
2018-09-06T12:17:28.947Z,36.30
2018-09-06T12:20:03.581Z,37.83
2018-09-06T12:22:38.521Z,35.43
2018-09-06T12:25:13.377Z,38.77
2018-09-06T12:27:48.248Z,37.53
2018-09-06T12:30:23.305Z,37.40
2018-09-06T12:32:58.200Z,36.87
2018-09-06T12:35:32.807Z,35.27
2018-09-06T12:38:07.494Z,36.47
2018-09-06T12:40:42.096Z,36.23
2018-09-06T12:43:17.013Z,34.03
2018-09-06T12:45:51.457Z,34.77
2018-09-06T12:48:25.910Z,32.60
2018-09-06T12:51:00.364Z,31.30
2018-09-06T12:53:35.023Z,32.30
2018-09-06T12:56:09.611Z,32.50
2018-09-06T12:58:44.841Z,30.67
2018-09-06T13:01:19.472Z,29.63
2018-09-06T13:03:54.107Z,29.00
2018-09-06T13:06:29.336Z,27.83
2018-09-06T13:09:05.796Z,27.13
2018-09-06T13:11:40.476Z,26.90
2018-09-06T13:14:14.953Z,27.53
2018-09-06T13:16:49.649Z,24.97
2018-09-06T13:19:24.263Z,24.77
2018-09-06T13:21:58.905Z,24.53
2018-09-06T13:24:33.596Z,23.60
2018-09-06T13:27:08.384Z,24.43
2018-09-06T13:29:43.587Z,24.80
2018-09-06T13:32:17.958Z,25.37
2018-09-06T13:34:52.429Z,25.57
2018-09-06T13:37:27.143Z,25.87
2018-09-06T13:40:01.998Z,25.23
2018-09-06T13:42:36.573Z,25.60
2018-09-06T13:45:11.155Z,24.90
2018-09-06T13:47:45.772Z,25.03
2018-09-06T13:50:20.336Z,24.90
2018-09-06T13:55:52.218Z,26.00
2018-09-06T13:58:26.880Z,27.63
2018-09-06T14:01:01.477Z,27.67
2018-09-06T14:03:36.395Z,29.10
2018-09-06T14:06:11.448Z,26.53
2018-09-06T14:08:46.677Z,28.30
2018-09-06T14:11:21.314Z,28.40
2018-09-06T14:13:55.884Z,28.03
2018-09-06T14:16:30.986Z,30.93
2018-09-06T14:19:05.741Z,29.93
2018-09-06T14:21:45.233Z,32.03
2018-09-06T14:24:19.965Z,32.93
2018-09-06T14:26:54.944Z,32.70
2018-09-06T14:29:30.188Z,35.00
2018-09-06T14:32:04.926Z,34.27
2018-09-06T14:34:39.677Z,35.37
2018-09-06T14:37:14.165Z,36.67
2018-09-06T14:39:49.190Z,34.53
2018-09-06T14:42:29.560Z,37.77
2018-09-06T14:45:05.107Z,36.33
2018-09-06T14:47:40.110Z,35.00
2018-09-06T14:50:14.805Z,37.00
2018-09-06T14:52:55.429Z,35.87
2018-09-06T14:55:34.559Z,37.30
2018-09-06T14:58:09.132Z,36.30
2018-09-06T15:00:43.774Z,37.33
2018-09-06T15:03:18.588Z,38.30
2018-09-06T15:05:53.220Z,38.60
2018-09-06T15:08:27.900Z,39.50
2018-09-06T15:11:02.448Z,39.40
2018-09-06T15:13:37.840Z,40.03
2018-09-06T15:16:12.609Z,41.57
2018-09-06T15:18:47.765Z,39.60
2018-09-06T15:21:22.589Z,42.90
2018-09-06T15:23:57.048Z,41.10
2018-09-06T15:26:56.590Z,42.53
2018-09-06T15:29:31.165Z,42.07
2018-09-06T15:32:06.063Z,42.23
2018-09-06T15:34:41.168Z,41.07
2018-09-06T15:37:15.987Z,42.53
2018-09-06T15:39:50.698Z,44.27
2018-09-06T15:42:26.520Z,44.57
2018-09-06T15:45:01.152Z,46.83
2018-09-06T15:47:35.720Z,44.80
2018-09-06T15:50:10.347Z,44.00
2018-09-06T15:52:45.159Z,47.20
2018-09-06T15:55:19.771Z,44.67
2018-09-06T15:57:54.320Z,45.03
2018-09-06T16:00:29.221Z,45.80
2018-09-06T16:03:03.568Z,46.03
2018-09-06T16:05:38.101Z,45.17
2018-09-06T16:08:12.573Z,43.27
2018-09-06T16:10:47.036Z,46.23
2018-09-06T16:13:23.025Z,46.67
2018-09-06T16:15:58.023Z,45.07
2018-09-06T16:18:34.644Z,45.50
2018-09-06T16:21:09.353Z,46.57
2018-09-06T16:23:44.098Z,47.73
2018-09-06T16:26:18.725Z,44.93
2018-09-06T16:28:53.821Z,45.73
2018-09-06T16:31:28.569Z,46.67
2018-09-06T16:34:03.177Z,47.50
2018-09-06T16:36:37.797Z,47.53
2018-09-06T16:39:12.819Z,48.07
2018-09-06T16:41:47.481Z,46.93
2018-09-06T16:44:22.025Z,45.43
2018-09-06T16:46:56.983Z,46.47
2018-09-06T16:49:31.707Z,45.40
2018-09-06T16:52:06.317Z,48.43
2018-09-06T16:54:40.853Z,46.07
2018-09-06T16:57:15.669Z,47.23
2018-09-06T16:59:50.337Z,47.27
2018-09-06T17:02:25.052Z,47.20
2018-09-06T17:05:00.394Z,49.47
2018-09-06T17:07:35.289Z,47.07
2018-09-06T17:10:09.856Z,47.80
2018-09-06T17:12:44.416Z,46.70
2018-09-06T17:15:19.373Z,42.50
2018-09-06T17:17:53.948Z,43.50
2018-09-06T17:20:29.067Z,41.23
2018-09-06T17:23:03.818Z,41.47
2018-09-06T17:25:38.582Z,40.77
2018-09-06T17:28:13.502Z,37.60
2018-09-06T17:30:48.829Z,39.73
2018-09-06T17:33:23.784Z,40.70
2018-09-06T17:35:59.220Z,40.13
2018-09-06T17:38:34.102Z,41.00
2018-09-06T17:41:08.521Z,41.20
2018-09-06T17:43:43.197Z,40.47
2018-09-06T17:46:18.121Z,41.47
2018-09-06T17:48:52.984Z,40.40
2018-09-06T17:51:27.648Z,40.07
2018-09-06T17:54:02.318Z,40.73
2018-09-06T17:56:37.097Z,41.23
2018-09-06T17:59:11.660Z,40.23
2018-09-06T18:01:46.157Z,41.30
2018-09-06T18:04:20.725Z,37.27
2018-09-06T18:06:55.484Z,36.30
2018-09-06T18:09:30.134Z,35.27
2018-09-06T18:12:05.473Z,34.63
2018-09-06T18:14:40.211Z,35.60
2018-09-06T18:17:14.910Z,36.53
2018-09-06T18:19:49.599Z,33.63
2018-09-06T18:22:24.289Z,32.37
2018-09-06T18:24:58.962Z,33.87
2018-09-06T18:27:33.652Z,33.93
2018-09-06T18:30:08.268Z,32.80
2018-09-06T18:32:42.852Z,32.87
2018-09-06T18:35:17.765Z,32.13
2018-09-06T18:37:52.442Z,32.13
2018-09-06T18:40:27.011Z,31.10
2018-09-06T18:43:01.564Z,33.07
2018-09-06T18:45:36.213Z,32.77
2018-09-06T18:48:10.895Z,32.77
2018-09-06T18:50:45.553Z,32.47
2018-09-06T18:53:20.173Z,34.80
2018-09-06T18:55:54.870Z,34.33
2018-09-06T18:58:29.669Z,32.90
2018-09-06T19:01:04.494Z,32.53
2018-09-06T19:03:39.266Z,35.50
2018-09-06T19:06:13.973Z,32.77
2018-09-06T19:08:49.059Z,32.60
2018-09-06T19:11:23.813Z,30.13
2018-09-06T19:13:58.540Z,32.80
2018-09-06T19:16:33.384Z,29.80
2018-09-06T19:19:07.817Z,30.70
2018-09-06T19:21:42.417Z,28.70
2018-09-06T19:24:17.260Z,30.17
2018-09-06T19:26:51.925Z,27.40
2018-09-06T19:29:26.547Z,27.10
2018-09-06T19:32:01.127Z,26.63
2018-09-06T19:34:35.660Z,26.73
2018-09-06T19:37:10.566Z,24.47
2018-09-06T19:39:45.109Z,22.67
2018-09-06T19:42:19.744Z,23.20
2018-09-06T19:44:54.394Z,24.50
2018-09-06T19:47:29.189Z,22.47
2018-09-06T19:50:03.822Z,23.13
2018-09-06T19:52:38.378Z,23.83
2018-09-06T19:55:12.929Z,25.13
2018-09-06T19:57:47.716Z,24.80
2018-09-06T20:00:22.340Z,23.60
2018-09-06T20:02:56.944Z,24.43
2018-09-06T20:05:31.561Z,25.53
2018-09-06T20:08:06.388Z,25.63
2018-09-06T20:10:41.065Z,26.70
2018-09-06T20:13:15.813Z,25.40
2018-09-06T20:15:50.373Z,27.40
2018-09-06T20:18:25.136Z,26.07
2018-09-06T20:20:59.753Z,27.70
2018-09-06T20:23:34.416Z,28.30
2018-09-06T20:26:09.195Z,29.03
2018-09-06T20:28:43.852Z,30.63
2018-09-06T20:31:18.468Z,31.43
2018-09-06T20:33:53.129Z,31.17
2018-09-06T20:36:27.721Z,30.63
2018-09-06T20:39:02.340Z,30.77
2018-09-06T20:41:36.803Z,31.23
2018-09-06T20:44:11.371Z,30.57
2018-09-06T20:46:45.846Z,31.17
2018-09-06T20:49:20.444Z,30.10
2018-09-06T20:51:55.201Z,31.20
2018-09-06T20:54:29.729Z,30.47
2018-09-06T20:57:04.659Z,31.17
2018-09-06T20:59:39.348Z,32.07
2018-09-06T21:02:19.425Z,31.50
2018-09-06T21:04:54.606Z,30.50
2018-09-06T21:07:29.203Z,31.20
2018-09-06T21:10:04.380Z,29.37
2018-09-06T21:12:38.936Z,29.07
2018-09-06T21:15:13.688Z,31.93
2018-09-06T21:17:48.248Z,29.17
2018-09-06T21:20:22.772Z,28.63
2018-09-06T21:22:57.385Z,29.17
2018-09-06T21:25:31.954Z,30.20
2018-09-06T21:28:06.708Z,30.80
2018-09-06T21:30:41.253Z,30.53
2018-09-06T21:33:15.855Z,31.70
2018-09-06T21:35:50.575Z,30.37
2018-09-06T21:38:25.252Z,30.97
2018-09-06T21:40:59.953Z,30.53
2018-09-06T21:43:34.649Z,29.57
2018-09-06T21:46:09.233Z,30.77
2018-09-06T21:48:43.784Z,30.67
2018-09-06T21:51:18.577Z,31.30
2018-09-06T21:53:53.251Z,31.80
2018-09-06T21:56:27.753Z,30.73
2018-09-06T21:59:02.441Z,33.03
2018-09-06T22:01:37.474Z,31.73
2018-09-06T22:04:12.186Z,29.83
2018-09-06T22:06:46.976Z,34.07
2018-09-06T22:09:21.346Z,32.17
2018-09-06T22:11:55.996Z,34.87
2018-09-06T22:14:30.581Z,34.43
2018-09-06T22:17:05.452Z,33.47
2018-09-06T22:19:40.173Z,35.03
2018-09-06T22:22:14.792Z,35.77
2018-09-06T22:24:49.459Z,34.30
2018-09-06T22:27:24.083Z,36.60
2018-09-06T22:29:58.814Z,35.43
2018-09-06T22:32:33.437Z,34.67
2018-09-06T22:35:08.344Z,33.03
2018-09-06T22:37:43.468Z,34.67
2018-09-06T22:40:18.318Z,34.40
2018-09-06T22:42:52.989Z,34.23
2018-09-06T22:45:27.664Z,33.47
2018-09-06T22:48:02.598Z,31.97
2018-09-06T22:50:37.361Z,31.73
2018-09-06T22:53:11.976Z,31.17
2018-09-06T22:55:46.504Z,31.10
2018-09-06T22:58:21.122Z,30.57
2018-09-06T23:00:55.745Z,32.13
2018-09-06T23:03:35.542Z,30.73
2018-09-06T23:06:10.201Z,31.20
2018-09-06T23:08:44.907Z,32.47
2018-09-06T23:11:19.881Z,32.73
2018-09-06T23:13:54.589Z,34.23
2018-09-06T23:16:29.281Z,33.83
2018-09-06T23:19:04.025Z,35.43
2018-09-06T23:21:38.677Z,34.73
2018-09-06T23:24:25.224Z,37.13
2018-09-06T23:26:59.763Z,39.00
2018-09-06T23:29:34.244Z,36.17
2018-09-06T23:32:09.313Z,37.80
2018-09-06T23:34:44.010Z,35.03
2018-09-06T23:37:18.624Z,34.50
2018-09-06T23:39:53.608Z,35.83
2018-09-06T23:42:28.481Z,34.77
2018-09-06T23:45:03.088Z,36.87
2018-09-06T23:47:37.757Z,37.60
2018-09-06T23:50:12.397Z,36.03
2018-09-06T23:52:47.168Z,37.57
2018-09-06T23:55:22.309Z,37.57
2018-09-06T23:57:57.020Z,35.40
